Delray Beach, FL

12:46 PM EST on January 31, 2015 (GMT -0500)
Lake Ida - Garden House | Change Station
CLOSE
Current Station
Personal Weather Station
Location: Delray Beach, FL
Elevation: 0 ft
Nearby Weather Stations
Active Advisory: Coastal Hazard Statement

Elev 0 ft 26.48 °N, 80.07 °W | Updated 1 minute ago

Partly Cloudy
Partly Cloudy
73.6 °F
Feels Like 77 °F
N
4.2
Wind Variable Wind from East

Today
High -- | Low -- °F
--% Chance of Precip.
Yesterday
High -- | Low -- °F
Precip. -- in
7:05 AM 6:02 PM
Waxing Gibbous, 90% visible
Pressure 30.25 in
Visibility 10.0 miles
Clouds Few 4100 ft
Scattered Clouds 5000 ft
Scattered Clouds 6000 ft
Heat Index 77 °F
Dew Point 55 °F
Humidity 53%
Rainfall 0.00 in
Snow Depth Not available.
UV 6 out of 12
Pollen 8.30 out of 12
Air Quality Not available.
Flu Activity Not available.
METAR KPMP 311653Z 08014G21KT 10SM FEW041 SCT050 SCT060 23/11 A3024 RMK AO2 SLP241 T02280111

More Conditions Fewer Conditions

Pressure 30.25 in
Visibility 10.0 miles
Clouds Few 4100 ft
Scattered Clouds 5000 ft
Scattered Clouds 6000 ft
Heat Index 77 °F
Dew Point 55 °F
Humidity 53%
Rainfall 0.00 in
Snow Depth Not available.
UV 6 out of 12
Pollen 8.30 out of 12
Air Quality Not available.
Flu Activity Not available.
METAR KPMP 311653Z 08014G21KT 10SM FEW041 SCT050 SCT060 23/11 A3024 RMK AO2 SLP241 T02280111

More Conditions Fewer Conditions

10-Day Weather Forecast

Almanac

Astronomy

Jan. 31, 2015 Rise Set
Actual Time
Civil Twilight
Nautical Twilight
Astronomical Twilight
Moon
Length of Visible Light
Length of Day
Tomorrow will be .
, % of the Moon is Illuminated

Today's Extremes

State Highs State Lows

Community

WunderPhotos

Upload Photos

1,792,136 photos uploaded!

WunderBlogs® & News

Nearby

Air Quality

  Air Quality AQ Index Pollutant
Not available.

Snow Depth

Station Depth Elevation

Earthquake Activity

City Distance Mag. Time & Date
Minimum magnitude displayed is 2.5.

Coastal Water Temperatures

Place Temperature

Nearby Weather Stations